ンジャメナ の空港の天気 - METARとTAF

ンジャメナ国際空港 ( FTTJ / NDJ ) - チャド ンジャメナ
飛行場実況気象(Metar)
観測時間01/19 16:00 WAT (01/19 15:00 UTC)
風向・風速北 4m/s
視程10km以上
天気現象
なし
気温35℃
湿度7%
気圧1009hPa
METARFTTJ 191500Z 01008KT 010V070 CAVOK 35/M06 Q1009 NOSIG
過去の天気等 Google飛行場航空写真 Wunderground天気予報

過去48時間のMETAR

飛行場予報(TAF)
発表時間: 1/19 12:00 WAT (1/19 11:00 UTC)
予報対象時間: 19日13時 WAT ~ 20日19時 WAT
風向・風速北 4m/s
視程10km以上
なし
19日18時 WAT ~ 19日20時 WAT に 確率 30% で一時的に
視程4000m
天気現象風塵
TAF FTTJ 191100Z 1912/2018 01007KT CAVOK
PROB30 TEMPO 1917/1919 4000 DU